sensor_id;sensor_type;location;lat;lon;timestamp;P1;durP1;ratioP1;P2;durP2;ratioP2
40252;SDS011;25972;51.854;4.534;2023-06-10T00:00:16;7.22;;;3.72;;
40252;SDS011;25972;51.854;4.534;2023-06-10T00:02:44;7.18;;;3.90;;
40252;SDS011;25972;51.854;4.534;2023-06-10T00:05:10;6.80;;;3.53;;
40252;SDS011;25972;51.854;4.534;2023-06-10T00:07:36;7.10;;;4.25;;
40252;SDS011;25972;51.854;4.534;2023-06-10T00:10:03;7.15;;;4.05;;
40252;SDS011;25972;51.854;4.534;2023-06-10T00:12:31;7.03;;;3.80;;
40252;SDS011;25972;51.854;4.534;2023-06-10T00:15:02;7.20;;;4.15;;
40252;SDS011;25972;51.854;4.534;2023-06-10T00:17:28;8.10;;;4.10;;
40252;SDS011;25972;51.854;4.534;2023-06-10T00:19:56;6.85;;;3.83;;
40252;SDS011;25972;51.854;4.534;2023-06-10T00:22:23;7.38;;;3.92;;
40252;SDS011;25972;51.854;4.534;2023-06-10T00:24:54;8.20;;;4.13;;
40252;SDS011;25972;51.854;4.534;2023-06-10T00:27:21;7.05;;;3.90;;
40252;SDS011;25972;51.854;4.534;2023-06-10T00:29:47;6.93;;;3.92;;
40252;SDS011;25972;51.854;4.534;2023-06-10T00:32:13;8.10;;;3.95;;
40252;SDS011;25972;51.854;4.534;2023-06-10T00:34:39;7.03;;;4.03;;
40252;SDS011;25972;51.854;4.534;2023-06-10T00:37:06;8.23;;;4.60;;
40252;SDS011;25972;51.854;4.534;2023-06-10T00:39:32;9.00;;;4.28;;
40252;SDS011;25972;51.854;4.534;2023-06-10T00:41:58;9.10;;;3.83;;
40252;SDS011;25972;51.854;4.534;2023-06-10T00:44:25;6.85;;;3.72;;
40252;SDS011;25972;51.854;4.534;2023-06-10T00:46:51;7.20;;;4.03;;
40252;SDS011;25972;51.854;4.534;2023-06-10T00:49:20;8.85;;;4.65;;
40252;SDS011;25972;51.854;4.534;2023-06-10T00:51:46;7.60;;;3.83;;
40252;SDS011;25972;51.854;4.534;2023-06-10T00:54:15;8.35;;;3.88;;
40252;SDS011;25972;51.854;4.534;2023-06-10T00:56:41;7.65;;;3.85;;
40252;SDS011;25972;51.854;4.534;2023-06-10T00:59:08;7.25;;;3.95;;
40252;SDS011;25972;51.854;4.534;2023-06-10T01:01:35;8.38;;;3.90;;
40252;SDS011;25972;51.854;4.534;2023-06-10T01:04:03;7.13;;;4.03;;
40252;SDS011;25972;51.854;4.534;2023-06-10T01:06:30;7.25;;;4.20;;
40252;SDS011;25972;51.854;4.534;2023-06-10T01:09:06;7.88;;;4.13;;
40252;SDS011;25972;51.854;4.534;2023-06-10T01:11:43;7.85;;;3.80;;
40252;SDS011;25972;51.854;4.534;2023-06-10T01:16:39;8.10;;;3.90;;
40252;SDS011;25972;51.854;4.534;2023-06-10T01:19:07;6.65;;;3.83;;
40252;SDS011;25972;51.854;4.534;2023-06-10T01:21:34;8.00;;;4.60;;
40252;SDS011;25972;51.854;4.534;2023-06-10T01:24:03;7.82;;;4.10;;
40252;SDS011;25972;51.854;4.534;2023-06-10T01:26:33;6.10;;;3.78;;
40252;SDS011;25972;51.854;4.534;2023-06-10T01:29:02;8.65;;;4.60;;
40252;SDS011;25972;51.854;4.534;2023-06-10T01:31:35;7.68;;;3.60;;
40252;SDS011;25972;51.854;4.534;2023-06-10T01:34:07;9.23;;;4.18;;
40252;SDS011;25972;51.854;4.534;2023-06-10T01:36:37;8.73;;;4.55;;
40252;SDS011;25972;51.854;4.534;2023-06-10T01:39:03;9.30;;;4.78;;
40252;SDS011;25972;51.854;4.534;2023-06-10T01:41:31;7.78;;;4.20;;
40252;SDS011;25972;51.854;4.534;2023-06-10T01:43:57;7.05;;;4.32;;
40252;SDS011;25972;51.854;4.534;2023-06-10T01:46:24;8.02;;;4.78;;
40252;SDS011;25972;51.854;4.534;2023-06-10T01:48:49;12.00;;;4.40;;
40252;SDS011;25972;51.854;4.534;2023-06-10T01:51:15;10.52;;;4.18;;
40252;SDS011;25972;51.854;4.534;2023-06-10T01:53:43;8.32;;;4.28;;
40252;SDS011;25972;51.854;4.534;2023-06-10T01:56:09;11.93;;;4.90;;
40252;SDS011;25972;51.854;4.534;2023-06-10T01:58:35;7.88;;;4.20;;
40252;SDS011;25972;51.854;4.534;2023-06-10T02:01:01;7.95;;;3.92;;
40252;SDS011;25972;51.854;4.534;2023-06-10T02:03:27;7.95;;;4.47;;
40252;SDS011;25972;51.854;4.534;2023-06-10T02:05:53;7.90;;;4.45;;
40252;SDS011;25972;51.854;4.534;2023-06-10T02:08:19;8.18;;;4.50;;
40252;SDS011;25972;51.854;4.534;2023-06-10T02:10:47;7.45;;;4.28;;
40252;SDS011;25972;51.854;4.534;2023-06-10T02:13:13;6.93;;;4.25;;
40252;SDS011;25972;51.854;4.534;2023-06-10T02:15:39;9.38;;;4.40;;
40252;SDS011;25972;51.854;4.534;2023-06-10T02:18:05;7.30;;;4.38;;
40252;SDS011;25972;51.854;4.534;2023-06-10T02:20:31;8.65;;;4.60;;
40252;SDS011;25972;51.854;4.534;2023-06-10T02:22:58;9.10;;;4.13;;
40252;SDS011;25972;51.854;4.534;2023-06-10T02:25:24;9.32;;;5.03;;
40252;SDS011;25972;51.854;4.534;2023-06-10T02:27:52;10.20;;;4.57;;
40252;SDS011;25972;51.854;4.534;2023-06-10T02:30:18;11.75;;;4.50;;
40252;SDS011;25972;51.854;4.534;2023-06-10T02:32:44;9.18;;;4.60;;
40252;SDS011;25972;51.854;4.534;2023-06-10T02:35:14;11.63;;;4.63;;
40252;SDS011;25972;51.854;4.534;2023-06-10T02:37:41;8.85;;;4.78;;
40252;SDS011;25972;51.854;4.534;2023-06-10T02:40:08;7.97;;;4.65;;
40252;SDS011;25972;51.854;4.534;2023-06-10T02:42:37;11.90;;;5.20;;
40252;SDS011;25972;51.854;4.534;2023-06-10T02:45:06;9.00;;;4.68;;
40252;SDS011;25972;51.854;4.534;2023-06-10T02:47:38;8.77;;;4.53;;
40252;SDS011;25972;51.854;4.534;2023-06-10T02:50:06;9.27;;;4.63;;
40252;SDS011;25972;51.854;4.534;2023-06-10T02:52:38;8.18;;;4.13;;
40252;SDS011;25972;51.854;4.534;2023-06-10T02:55:05;8.30;;;5.05;;
40252;SDS011;25972;51.854;4.534;2023-06-10T02:57:31;8.20;;;4.68;;
40252;SDS011;25972;51.854;4.534;2023-06-10T03:00:00;10.52;;;5.43;;
40252;SDS011;25972;51.854;4.534;2023-06-10T03:02:38;10.88;;;4.85;;
40252;SDS011;25972;51.854;4.534;2023-06-10T03:05:06;8.85;;;4.75;;
40252;SDS011;25972;51.854;4.534;2023-06-10T03:10:05;8.75;;;4.75;;
40252;SDS011;25972;51.854;4.534;2023-06-10T03:12:37;8.65;;;4.80;;
40252;SDS011;25972;51.854;4.534;2023-06-10T03:15:04;9.85;;;4.78;;
40252;SDS011;25972;51.854;4.534;2023-06-10T03:17:31;9.60;;;5.47;;
40252;SDS011;25972;51.854;4.534;2023-06-10T03:19:58;10.32;;;5.03;;
40252;SDS011;25972;51.854;4.534;2023-06-10T03:22:24;8.70;;;4.50;;
40252;SDS011;25972;51.854;4.534;2023-06-10T03:25:04;8.38;;;4.70;;
40252;SDS011;25972;51.854;4.534;2023-06-10T03:27:33;8.10;;;4.28;;
40252;SDS011;25972;51.854;4.534;2023-06-10T03:30:03;8.65;;;4.70;;
40252;SDS011;25972;51.854;4.534;2023-06-10T03:32:31;9.10;;;4.72;;
40252;SDS011;25972;51.854;4.534;2023-06-10T03:34:59;9.93;;;4.78;;
40252;SDS011;25972;51.854;4.534;2023-06-10T03:37:28;9.30;;;4.88;;
40252;SDS011;25972;51.854;4.534;2023-06-10T03:39:54;9.43;;;4.97;;
40252;SDS011;25972;51.854;4.534;2023-06-10T03:42:21;8.93;;;4.70;;
40252;SDS011;25972;51.854;4.534;2023-06-10T03:44:48;9.95;;;4.50;;
40252;SDS011;25972;51.854;4.534;2023-06-10T03:47:14;9.75;;;5.05;;
40252;SDS011;25972;51.854;4.534;2023-06-10T03:49:41;8.80;;;4.40;;
40252;SDS011;25972;51.854;4.534;2023-06-10T03:52:09;11.55;;;4.60;;
40252;SDS011;25972;51.854;4.534;2023-06-10T03:54:35;8.32;;;4.43;;
40252;SDS011;25972;51.854;4.534;2023-06-10T03:57:02;8.13;;;4.47;;
40252;SDS011;25972;51.854;4.534;2023-06-10T03:59:29;8.50;;;4.65;;
40252;SDS011;25972;51.854;4.534;2023-06-10T04:01:55;12.00;;;4.72;;
40252;SDS011;25972;51.854;4.534;2023-06-10T04:04:22;8.38;;;4.45;;
40252;SDS011;25972;51.854;4.534;2023-06-10T04:06:48;7.85;;;3.92;;
40252;SDS011;25972;51.854;4.534;2023-06-10T04:09:17;6.45;;;4.00;;
40252;SDS011;25972;51.854;4.534;2023-06-10T04:11:43;8.88;;;4.15;;
40252;SDS011;25972;51.854;4.534;2023-06-10T04:14:09;10.13;;;3.90;;
40252;SDS011;25972;51.854;4.534;2023-06-10T04:16:37;8.82;;;4.32;;
40252;SDS011;25972;51.854;4.534;2023-06-10T04:19:04;6.18;;;3.70;;
40252;SDS011;25972;51.854;4.534;2023-06-10T04:21:30;7.38;;;3.88;;
40252;SDS011;25972;51.854;4.534;2023-06-10T04:23:56;10.10;;;4.40;;
40252;SDS011;25972;51.854;4.534;2023-06-10T04:26:24;7.82;;;3.90;;
40252;SDS011;25972;51.854;4.534;2023-06-10T04:28:51;7.50;;;4.10;;
40252;SDS011;25972;51.854;4.534;2023-06-10T04:31:18;8.27;;;3.90;;
40252;SDS011;25972;51.854;4.534;2023-06-10T04:33:45;6.30;;;3.17;;
40252;SDS011;25972;51.854;4.534;2023-06-10T04:36:11;7.25;;;3.95;;
40252;SDS011;25972;51.854;4.534;2023-06-10T04:38:37;7.93;;;4.32;;
40252;SDS011;25972;51.854;4.534;2023-06-10T04:41:03;6.85;;;3.67;;
40252;SDS011;25972;51.854;4.534;2023-06-10T04:43:33;8.10;;;4.00;;
40252;SDS011;25972;51.854;4.534;2023-06-10T04:46:01;8.30;;;3.83;;
40252;SDS011;25972;51.854;4.534;2023-06-10T04:48:28;8.60;;;4.53;;
40252;SDS011;25972;51.854;4.534;2023-06-10T04:50:54;6.28;;;3.50;;
40252;SDS011;25972;51.854;4.534;2023-06-10T04:53:21;8.05;;;4.28;;
40252;SDS011;25972;51.854;4.534;2023-06-10T04:55:48;8.55;;;3.40;;
40252;SDS011;25972;51.854;4.534;2023-06-10T04:58:14;6.90;;;3.25;;
40252;SDS011;25972;51.854;4.534;2023-06-10T05:00:42;6.88;;;3.72;;
40252;SDS011;25972;51.854;4.534;2023-06-10T05:03:09;8.43;;;3.33;;
40252;SDS011;25972;51.854;4.534;2023-06-10T05:05:35;6.78;;;3.33;;
40252;SDS011;25972;51.854;4.534;2023-06-10T05:08:00;7.78;;;3.70;;
40252;SDS011;25972;51.854;4.534;2023-06-10T05:10:26;7.70;;;3.80;;
40252;SDS011;25972;51.854;4.534;2023-06-10T05:12:56;8.00;;;3.65;;
40252;SDS011;25972;51.854;4.534;2023-06-10T05:15:23;5.85;;;3.08;;
40252;SDS011;25972;51.854;4.534;2023-06-10T05:17:50;8.90;;;4.05;;
40252;SDS011;25972;51.854;4.534;2023-06-10T05:20:17;6.60;;;3.15;;
40252;SDS011;25972;51.854;4.534;2023-06-10T05:22:43;6.03;;;3.20;;
40252;SDS011;25972;51.854;4.534;2023-06-10T05:25:09;7.22;;;3.55;;
40252;SDS011;25972;51.854;4.534;2023-06-10T05:27:35;6.75;;;3.60;;
40252;SDS011;25972;51.854;4.534;2023-06-10T05:30:02;9.38;;;3.83;;
40252;SDS011;25972;51.854;4.534;2023-06-10T05:32:29;6.50;;;2.92;;
40252;SDS011;25972;51.854;4.534;2023-06-10T05:34:57;7.65;;;3.40;;
40252;SDS011;25972;51.854;4.534;2023-06-10T05:37:25;8.15;;;3.25;;
40252;SDS011;25972;51.854;4.534;2023-06-10T05:39:51;8.40;;;3.55;;
40252;SDS011;25972;51.854;4.534;2023-06-10T05:42:17;9.27;;;3.75;;
40252;SDS011;25972;51.854;4.534;2023-06-10T05:44:43;6.45;;;3.33;;
40252;SDS011;25972;51.854;4.534;2023-06-10T05:47:09;10.07;;;3.72;;
40252;SDS011;25972;51.854;4.534;2023-06-10T05:49:35;7.60;;;3.53;;
40252;SDS011;25972;51.854;4.534;2023-06-10T05:52:03;8.98;;;3.15;;
40252;SDS011;25972;51.854;4.534;2023-06-10T05:54:29;7.72;;;3.70;;
40252;SDS011;25972;51.854;4.534;2023-06-10T05:56:55;7.50;;;3.65;;
40252;SDS011;25972;51.854;4.534;2023-06-10T05:59:21;6.60;;;2.83;;
40252;SDS011;25972;51.854;4.534;2023-06-10T06:01:48;8.18;;;3.40;;
40252;SDS011;25972;51.854;4.534;2023-06-10T06:04:15;10.07;;;3.88;;
40252;SDS011;25972;51.854;4.534;2023-06-10T06:06:41;7.93;;;3.28;;
40252;SDS011;25972;51.854;4.534;2023-06-10T06:09:08;8.18;;;3.70;;
40252;SDS011;25972;51.854;4.534;2023-06-10T06:11:34;7.30;;;3.20;;
40252;SDS011;25972;51.854;4.534;2023-06-10T06:14:00;7.45;;;3.70;;
40252;SDS011;25972;51.854;4.534;2023-06-10T06:16:26;7.88;;;3.47;;
40252;SDS011;25972;51.854;4.534;2023-06-10T06:18:52;8.63;;;3.40;;
40252;SDS011;25972;51.854;4.534;2023-06-10T06:21:18;6.40;;;3.25;;
40252;SDS011;25972;51.854;4.534;2023-06-10T06:23:45;7.43;;;3.33;;
40252;SDS011;25972;51.854;4.534;2023-06-10T06:26:12;7.00;;;3.63;;
40252;SDS011;25972;51.854;4.534;2023-06-10T06:28:39;6.22;;;3.17;;
40252;SDS011;25972;51.854;4.534;2023-06-10T06:31:05;6.45;;;3.22;;
40252;SDS011;25972;51.854;4.534;2023-06-10T06:33:32;6.28;;;3.28;;
40252;SDS011;25972;51.854;4.534;2023-06-10T06:35:59;7.05;;;3.47;;
40252;SDS011;25972;51.854;4.534;2023-06-10T06:38:25;8.45;;;3.88;;
40252;SDS011;25972;51.854;4.534;2023-06-10T06:40:52;9.10;;;4.07;;
40252;SDS011;25972;51.854;4.534;2023-06-10T06:43:19;11.35;;;4.13;;
40252;SDS011;25972;51.854;4.534;2023-06-10T06:45:57;7.18;;;3.50;;
40252;SDS011;25972;51.854;4.534;2023-06-10T06:48:23;7.20;;;3.35;;
40252;SDS011;25972;51.854;4.534;2023-06-10T06:50:49;7.63;;;3.60;;
40252;SDS011;25972;51.854;4.534;2023-06-10T06:53:15;8.30;;;3.88;;
40252;SDS011;25972;51.854;4.534;2023-06-10T06:55:41;9.88;;;3.75;;
40252;SDS011;25972;51.854;4.534;2023-06-10T06:58:07;6.45;;;3.42;;
40252;SDS011;25972;51.854;4.534;2023-06-10T07:00:35;7.13;;;3.35;;
40252;SDS011;25972;51.854;4.534;2023-06-10T07:03:01;9.45;;;3.70;;
40252;SDS011;25972;51.854;4.534;2023-06-10T07:05:27;6.60;;;3.40;;
40252;SDS011;25972;51.854;4.534;2023-06-10T07:07:53;7.68;;;3.67;;
40252;SDS011;25972;51.854;4.534;2023-06-10T07:10:20;7.88;;;3.97;;
40252;SDS011;25972;51.854;4.534;2023-06-10T07:12:47;8.75;;;4.30;;
40252;SDS011;25972;51.854;4.534;2023-06-10T07:15:13;8.25;;;3.75;;
40252;SDS011;25972;51.854;4.534;2023-06-10T07:17:40;7.47;;;3.83;;
40252;SDS011;25972;51.854;4.534;2023-06-10T07:20:07;7.43;;;3.50;;
40252;SDS011;25972;51.854;4.534;2023-06-10T07:22:33;6.97;;;3.60;;
40252;SDS011;25972;51.854;4.534;2023-06-10T07:24:59;7.65;;;3.88;;
40252;SDS011;25972;51.854;4.534;2023-06-10T07:27:25;10.80;;;4.18;;
40252;SDS011;25972;51.854;4.534;2023-06-10T07:29:51;8.20;;;4.15;;
40252;SDS011;25972;51.854;4.534;2023-06-10T07:32:17;9.90;;;3.40;;
40252;SDS011;25972;51.854;4.534;2023-06-10T07:34:46;7.05;;;3.35;;
40252;SDS011;25972;51.854;4.534;2023-06-10T07:37:12;10.02;;;3.58;;
40252;SDS011;25972;51.854;4.534;2023-06-10T07:39:38;7.07;;;3.70;;
40252;SDS011;25972;51.854;4.534;2023-06-10T07:42:05;9.88;;;4.10;;
40252;SDS011;25972;51.854;4.534;2023-06-10T07:44:32;7.22;;;4.03;;
40252;SDS011;25972;51.854;4.534;2023-06-10T07:46:58;6.05;;;3.20;;
40252;SDS011;25972;51.854;4.534;2023-06-10T07:49:25;7.43;;;3.97;;
40252;SDS011;25972;51.854;4.534;2023-06-10T07:51:53;9.32;;;3.40;;
40252;SDS011;25972;51.854;4.534;2023-06-10T07:54:20;5.47;;;3.22;;
40252;SDS011;25972;51.854;4.534;2023-06-10T07:56:46;7.47;;;3.53;;
40252;SDS011;25972;51.854;4.534;2023-06-10T07:59:13;8.55;;;3.17;;
40252;SDS011;25972;51.854;4.534;2023-06-10T08:01:39;10.90;;;4.20;;
40252;SDS011;25972;51.854;4.534;2023-06-10T08:04:05;6.47;;;3.40;;
40252;SDS011;25972;51.854;4.534;2023-06-10T08:06:32;5.80;;;2.88;;
40252;SDS011;25972;51.854;4.534;2023-06-10T08:08:59;9.00;;;3.60;;
40252;SDS011;25972;51.854;4.534;2023-06-10T08:11:25;6.82;;;3.40;;
40252;SDS011;25972;51.854;4.534;2023-06-10T08:13:53;7.70;;;3.38;;
40252;SDS011;25972;51.854;4.534;2023-06-10T08:16:19;8.07;;;3.25;;
40252;SDS011;25972;51.854;4.534;2023-06-10T08:18:45;7.50;;;3.97;;
40252;SDS011;25972;51.854;4.534;2023-06-10T08:21:11;7.25;;;3.97;;
40252;SDS011;25972;51.854;4.534;2023-06-10T08:23:37;8.20;;;3.58;;
40252;SDS011;25972;51.854;4.534;2023-06-10T08:26:05;6.53;;;3.03;;
40252;SDS011;25972;51.854;4.534;2023-06-10T08:28:31;8.77;;;2.83;;
40252;SDS011;25972;51.854;4.534;2023-06-10T08:30:57;6.38;;;2.83;;
40252;SDS011;25972;51.854;4.534;2023-06-10T08:57:11;7.63;;;3.17;;
40252;SDS011;25972;51.854;4.534;2023-06-10T08:59:38;6.28;;;3.05;;
40252;SDS011;25972;51.854;4.534;2023-06-10T09:02:06;6.85;;;3.35;;
40252;SDS011;25972;51.854;4.534;2023-06-10T09:04:34;4.22;;;2.90;;
40252;SDS011;25972;51.854;4.534;2023-06-10T09:07:01;9.77;;;3.42;;
40252;SDS011;25972;51.854;4.534;2023-06-10T09:09:29;7.15;;;3.55;;
40252;SDS011;25972;51.854;4.534;2023-06-10T09:11:58;7.18;;;3.40;;
40252;SDS011;25972;51.854;4.534;2023-06-10T09:14:25;6.45;;;3.25;;
40252;SDS011;25972;51.854;4.534;2023-06-10T09:16:55;7.38;;;3.08;;
40252;SDS011;25972;51.854;4.534;2023-06-10T09:19:26;6.13;;;3.38;;
40252;SDS011;25972;51.854;4.534;2023-06-10T09:21:54;6.00;;;3.10;;
40252;SDS011;25972;51.854;4.534;2023-06-10T09:24:21;6.97;;;3.40;;
40252;SDS011;25972;51.854;4.534;2023-06-10T09:26:48;5.93;;;2.90;;
40252;SDS011;25972;51.854;4.534;2023-06-10T09:29:28;7.90;;;3.47;;
40252;SDS011;25972;51.854;4.534;2023-06-10T09:31:56;7.72;;;3.20;;
40252;SDS011;25972;51.854;4.534;2023-06-10T09:34:24;6.63;;;3.28;;
40252;SDS011;25972;51.854;4.534;2023-06-10T09:36:58;6.93;;;3.15;;
40252;SDS011;25972;51.854;4.534;2023-06-10T09:39:28;7.18;;;3.55;;
40252;SDS011;25972;51.854;4.534;2023-06-10T09:41:54;6.20;;;3.28;;
40252;SDS011;25972;51.854;4.534;2023-06-10T09:44:23;7.25;;;2.90;;
40252;SDS011;25972;51.854;4.534;2023-06-10T09:46:56;6.82;;;2.95;;
40252;SDS011;25972;51.854;4.534;2023-06-10T09:49:24;15.20;;;4.43;;
40252;SDS011;25972;51.854;4.534;2023-06-10T09:51:56;6.70;;;3.05;;
40252;SDS011;25972;51.854;4.534;2023-06-10T09:54:22;7.35;;;3.10;;
40252;SDS011;25972;51.854;4.534;2023-06-10T09:56:51;6.13;;;3.00;;
40252;SDS011;25972;51.854;4.534;2023-06-10T10:02:04;5.35;;;2.72;;
40252;SDS011;25972;51.854;4.534;2023-06-10T10:04:30;4.72;;;2.47;;
40252;SDS011;25972;51.854;4.534;2023-06-10T10:07:02;8.38;;;3.50;;
40252;SDS011;25972;51.854;4.534;2023-06-10T10:09:29;5.75;;;3.08;;
40252;SDS011;25972;51.854;4.534;2023-06-10T10:11:55;6.40;;;3.38;;
40252;SDS011;25972;51.854;4.534;2023-06-10T10:14:23;5.90;;;3.22;;
40252;SDS011;25972;51.854;4.534;2023-06-10T10:16:50;6.65;;;3.10;;
40252;SDS011;25972;51.854;4.534;2023-06-10T10:19:33;6.05;;;3.00;;
40252;SDS011;25972;51.854;4.534;2023-06-10T10:22:08;8.55;;;3.13;;
40252;SDS011;25972;51.854;4.534;2023-06-10T10:24:48;7.45;;;3.05;;
40252;SDS011;25972;51.854;4.534;2023-06-10T10:27:20;6.45;;;2.90;;
40252;SDS011;25972;51.854;4.534;2023-06-10T10:29:52;6.15;;;3.10;;
40252;SDS011;25972;51.854;4.534;2023-06-10T10:32:22;6.78;;;3.08;;
40252;SDS011;25972;51.854;4.534;2023-06-10T10:34:56;5.45;;;2.78;;
40252;SDS011;25972;51.854;4.534;2023-06-10T10:37:32;6.43;;;3.13;;
40252;SDS011;25972;51.854;4.534;2023-06-10T10:39:59;5.47;;;2.80;;
40252;SDS011;25972;51.854;4.534;2023-06-10T10:42:29;4.93;;;2.92;;
40252;SDS011;25972;51.854;4.534;2023-06-10T10:45:05;7.82;;;3.17;;
40252;SDS011;25972;51.854;4.534;2023-06-10T10:47:33;6.10;;;3.05;;
40252;SDS011;25972;51.854;4.534;2023-06-10T10:50:03;4.95;;;2.83;;
40252;SDS011;25972;51.854;4.534;2023-06-10T10:52:46;6.38;;;3.17;;
40252;SDS011;25972;51.854;4.534;2023-06-10T10:55:17;6.38;;;2.92;;
40252;SDS011;25972;51.854;4.534;2023-06-10T10:57:43;5.50;;;3.45;;
40252;SDS011;25972;51.854;4.534;2023-06-10T11:00:10;7.57;;;3.40;;
40252;SDS011;25972;51.854;4.534;2023-06-10T11:02:40;6.20;;;2.70;;
40252;SDS011;25972;51.854;4.534;2023-06-10T11:05:13;5.82;;;2.83;;
40252;SDS011;25972;51.854;4.534;2023-06-10T11:07:40;5.63;;;2.80;;
40252;SDS011;25972;51.854;4.534;2023-06-10T11:10:17;4.95;;;2.47;;
40252;SDS011;25972;51.854;4.534;2023-06-10T11:12:53;4.72;;;2.60;;
40252;SDS011;25972;51.854;4.534;2023-06-10T11:15:23;5.80;;;2.80;;
40252;SDS011;25972;51.854;4.534;2023-06-10T11:20:58;7.25;;;3.05;;
40252;SDS011;25972;51.854;4.534;2023-06-10T11:23:38;6.53;;;3.13;;
40252;SDS011;25972;51.854;4.534;2023-06-10T11:26:14;5.72;;;2.38;;
40252;SDS011;25972;51.854;4.534;2023-06-10T11:29:06;5.55;;;2.72;;
40252;SDS011;25972;51.854;4.534;2023-06-10T11:31:38;5.32;;;2.85;;
40252;SDS011;25972;51.854;4.534;2023-06-10T11:34:09;5.45;;;2.70;;
40252;SDS011;25972;51.854;4.534;2023-06-10T11:36:41;8.68;;;3.22;;
40252;SDS011;25972;51.854;4.534;2023-06-10T11:39:10;5.53;;;2.17;;
40252;SDS011;25972;51.854;4.534;2023-06-10T11:41:37;3.92;;;2.20;;
40252;SDS011;25972;51.854;4.534;2023-06-10T11:44:09;5.65;;;3.15;;
40252;SDS011;25972;51.854;4.534;2023-06-10T11:46:36;4.82;;;2.90;;
40252;SDS011;25972;51.854;4.534;2023-06-10T11:49:03;7.68;;;3.00;;
40252;SDS011;25972;51.854;4.534;2023-06-10T11:51:32;6.63;;;3.63;;
40252;SDS011;25972;51.854;4.534;2023-06-10T11:56:38;4.70;;;2.58;;
40252;SDS011;25972;51.854;4.534;2023-06-10T11:59:05;5.05;;;2.72;;
40252;SDS011;25972;51.854;4.534;2023-06-10T12:01:33;4.53;;;2.38;;
40252;SDS011;25972;51.854;4.534;2023-06-10T12:04:02;4.97;;;2.97;;
40252;SDS011;25972;51.854;4.534;2023-06-10T12:06:42;4.70;;;2.70;;
40252;SDS011;25972;51.854;4.534;2023-06-10T12:09:15;5.00;;;2.70;;
40252;SDS011;25972;51.854;4.534;2023-06-10T12:11:43;5.03;;;2.80;;
40252;SDS011;25972;51.854;4.534;2023-06-10T12:14:10;4.78;;;2.50;;
40252;SDS011;25972;51.854;4.534;2023-06-10T12:16:36;6.50;;;2.78;;
40252;SDS011;25972;51.854;4.534;2023-06-10T12:19:02;5.68;;;3.08;;
40252;SDS011;25972;51.854;4.534;2023-06-10T12:21:31;5.20;;;3.03;;
40252;SDS011;25972;51.854;4.534;2023-06-10T12:24:01;5.63;;;2.65;;
40252;SDS011;25972;51.854;4.534;2023-06-10T12:26:37;6.82;;;2.88;;
40252;SDS011;25972;51.854;4.534;2023-06-10T12:29:22;5.50;;;3.03;;
40252;SDS011;25972;51.854;4.534;2023-06-10T12:31:57;7.70;;;2.90;;
40252;SDS011;25972;51.854;4.534;2023-06-10T12:34:28;6.55;;;3.10;;
40252;SDS011;25972;51.854;4.534;2023-06-10T12:36:55;4.30;;;2.72;;
40252;SDS011;25972;51.854;4.534;2023-06-10T12:39:21;6.18;;;3.22;;
40252;SDS011;25972;51.854;4.534;2023-06-10T12:41:49;4.28;;;2.70;;
40252;SDS011;25972;51.854;4.534;2023-06-10T12:44:18;4.32;;;2.53;;
40252;SDS011;25972;51.854;4.534;2023-06-10T12:46:53;6.38;;;2.53;;
40252;SDS011;25972;51.854;4.534;2023-06-10T12:49:22;6.30;;;3.33;;
40252;SDS011;25972;51.854;4.534;2023-06-10T12:51:48;5.70;;;2.88;;
40252;SDS011;25972;51.854;4.534;2023-06-10T12:54:15;5.57;;;2.67;;
40252;SDS011;25972;51.854;4.534;2023-06-10T12:56:41;6.88;;;2.97;;
40252;SDS011;25972;51.854;4.534;2023-06-10T12:59:09;5.32;;;2.75;;
40252;SDS011;25972;51.854;4.534;2023-06-10T13:01:36;7.30;;;2.75;;
40252;SDS011;25972;51.854;4.534;2023-06-10T13:04:04;7.13;;;2.40;;
40252;SDS011;25972;51.854;4.534;2023-06-10T13:06:35;5.80;;;2.92;;
40252;SDS011;25972;51.854;4.534;2023-06-10T13:09:05;4.85;;;2.40;;
40252;SDS011;25972;51.854;4.534;2023-06-10T13:11:32;7.47;;;3.17;;
40252;SDS011;25972;51.854;4.534;2023-06-10T13:13:58;5.72;;;2.47;;
40252;SDS011;25972;51.854;4.534;2023-06-10T13:16:26;6.18;;;3.25;;
40252;SDS011;25972;51.854;4.534;2023-06-10T13:18:53;5.25;;;3.10;;
40252;SDS011;25972;51.854;4.534;2023-06-10T13:21:19;5.32;;;3.25;;
40252;SDS011;25972;51.854;4.534;2023-06-10T13:23:48;7.60;;;3.25;;
40252;SDS011;25972;51.854;4.534;2023-06-10T13:26:15;6.07;;;2.75;;
40252;SDS011;25972;51.854;4.534;2023-06-10T13:28:42;6.13;;;2.88;;
40252;SDS011;25972;51.854;4.534;2023-06-10T13:31:08;6.57;;;3.13;;
40252;SDS011;25972;51.854;4.534;2023-06-10T13:33:35;5.63;;;2.72;;
40252;SDS011;25972;51.854;4.534;2023-06-10T13:36:01;4.60;;;2.53;;
40252;SDS011;25972;51.854;4.534;2023-06-10T13:38:28;5.25;;;2.97;;
40252;SDS011;25972;51.854;4.534;2023-06-10T13:40:54;6.75;;;3.25;;
40252;SDS011;25972;51.854;4.534;2023-06-10T13:43:23;4.88;;;3.10;;
40252;SDS011;25972;51.854;4.534;2023-06-10T13:45:50;3.63;;;1.88;;
40252;SDS011;25972;51.854;4.534;2023-06-10T13:48:21;5.00;;;2.92;;
40252;SDS011;25972;51.854;4.534;2023-06-10T13:50:49;5.18;;;3.03;;
40252;SDS011;25972;51.854;4.534;2023-06-10T13:53:22;5.35;;;2.55;;
40252;SDS011;25972;51.854;4.534;2023-06-10T13:55:49;6.03;;;2.97;;
40252;SDS011;25972;51.854;4.534;2023-06-10T13:58:15;6.18;;;3.30;;
40252;SDS011;25972;51.854;4.534;2023-06-10T14:00:42;5.80;;;2.83;;
40252;SDS011;25972;51.854;4.534;2023-06-10T14:03:09;5.93;;;2.90;;
40252;SDS011;25972;51.854;4.534;2023-06-10T14:05:35;4.95;;;2.85;;
40252;SDS011;25972;51.854;4.534;2023-06-10T14:08:02;7.78;;;2.80;;
40252;SDS011;25972;51.854;4.534;2023-06-10T14:10:29;5.80;;;2.47;;
40252;SDS011;25972;51.854;4.534;2023-06-10T14:12:55;5.25;;;2.92;;
40252;SDS011;25972;51.854;4.534;2023-06-10T14:15:21;5.63;;;3.08;;
40252;SDS011;25972;51.854;4.534;2023-06-10T14:17:47;6.28;;;3.28;;
40252;SDS011;25972;51.854;4.534;2023-06-10T14:20:13;2.90;;;2.10;;
40252;SDS011;25972;51.854;4.534;2023-06-10T14:22:40;5.63;;;3.10;;
40252;SDS011;25972;51.854;4.534;2023-06-10T14:25:07;5.30;;;2.80;;
40252;SDS011;25972;51.854;4.534;2023-06-10T14:27:34;5.20;;;2.95;;
40252;SDS011;25972;51.854;4.534;2023-06-10T14:30:00;3.83;;;2.08;;
40252;SDS011;25972;51.854;4.534;2023-06-10T14:32:26;5.25;;;3.03;;
40252;SDS011;25972;51.854;4.534;2023-06-10T14:34:52;5.32;;;3.03;;
40252;SDS011;25972;51.854;4.534;2023-06-10T14:37:18;4.68;;;2.75;;
40252;SDS011;25972;51.854;4.534;2023-06-10T14:39:48;5.07;;;2.85;;
40252;SDS011;25972;51.854;4.534;2023-06-10T14:42:15;6.22;;;3.42;;
40252;SDS011;25972;51.854;4.534;2023-06-10T14:44:41;6.22;;;2.90;;
40252;SDS011;25972;51.854;4.534;2023-06-10T14:47:07;5.30;;;3.00;;
40252;SDS011;25972;51.854;4.534;2023-06-10T14:49:33;4.93;;;2.67;;
40252;SDS011;25972;51.854;4.534;2023-06-10T14:52:00;7.00;;;3.10;;
40252;SDS011;25972;51.854;4.534;2023-06-10T14:54:26;6.53;;;3.38;;
40252;SDS011;25972;51.854;4.534;2023-06-10T14:56:52;8.70;;;3.03;;
40252;SDS011;25972;51.854;4.534;2023-06-10T14:59:19;6.10;;;2.92;;
40252;SDS011;25972;51.854;4.534;2023-06-10T15:01:48;8.85;;;3.30;;
40252;SDS011;25972;51.854;4.534;2023-06-10T15:04:15;5.72;;;2.78;;
40252;SDS011;25972;51.854;4.534;2023-06-10T15:06:41;5.18;;;2.67;;
40252;SDS011;25972;51.854;4.534;2023-06-10T15:09:08;5.28;;;2.85;;
40252;SDS011;25972;51.854;4.534;2023-06-10T15:11:35;7.57;;;2.75;;
40252;SDS011;25972;51.854;4.534;2023-06-10T15:14:03;4.55;;;2.53;;
40252;SDS011;25972;51.854;4.534;2023-06-10T15:16:30;4.57;;;2.80;;
40252;SDS011;25972;51.854;4.534;2023-06-10T15:18:57;6.75;;;3.00;;
40252;SDS011;25972;51.854;4.534;2023-06-10T15:21:23;4.03;;;2.63;;
40252;SDS011;25972;51.854;4.534;2023-06-10T15:23:56;5.72;;;2.95;;
40252;SDS011;25972;51.854;4.534;2023-06-10T15:26:22;7.10;;;2.70;;
40252;SDS011;25972;51.854;4.534;2023-06-10T15:28:48;4.53;;;2.50;;